Time;durP1;ratioP1;P1;durP2;ratioP2;P2;SDS_P1;SDS_P2;PMS_P1;PMS_P2;Temp;Humidity;BMP_temperature;BMP_pressure;BME280_temperature;BME280_humidity;BME280_pressure;Samples;Min_cycle;Max_cycle;Signal;HPM_P1;HPM_P2
2021/09/04 00:02:59;;;;;;;5.45;2.03;;;;;;;15.81;100.00;100377.78;5031807;28;20056;-76
2021/09/04 00:06:02;;;;;;;5.05;1.67;;;;;;;15.84;100.00;100373.97;5032466;28;20442;-78
2021/09/04 00:09:05;;;;;;;3.20;1.20;;;;;;;15.87;100.00;100370.19;5032762;28;20125;-77
2021/09/04 00:12:08;;;;;;;10.48;2.55;;;;;;;15.84;100.00;100362.75;5031761;28;20063;-77
2021/09/04 00:15:12;;;;;;;7.68;1.67;;;;;;;15.85;100.00;100361.50;5031791;28;20044;-78
2021/09/04 00:18:15;;;;;;;6.30;1.65;;;;;;;15.89;100.00;100364.84;5032276;28;20051;-77
2021/09/04 00:21:18;;;;;;;11.98;2.55;;;;;;;15.89;100.00;100356.41;5032281;28;20060;-77
2021/09/04 00:24:21;;;;;;;3.55;1.88;;;;;;;15.88;100.00;100361.25;5031973;28;20565;-78
2021/09/04 00:27:23;;;;;;;6.13;2.25;;;;;;;15.89;100.00;100371.25;5031493;28;20510;-79
2021/09/04 00:30:26;;;;;;;6.47;1.88;;;;;;;15.81;100.00;100358.13;5031251;28;20103;-77
2021/09/04 00:33:29;;;;;;;7.43;1.98;;;;;;;15.85;100.00;100364.31;5030919;28;20057;-78
2021/09/04 00:36:32;;;;;;;5.35;1.13;;;;;;;15.87;100.00;100353.34;5030789;28;20052;-78
2021/09/04 00:39:36;;;;;;;5.80;1.73;;;;;;;15.87;100.00;100350.53;5031767;28;20063;-78
2021/09/04 00:42:41;;;;;;;3.85;1.55;;;;;;;15.91;100.00;100353.88;5031336;28;20098;-78
2021/09/04 00:45:43;;;;;;;3.25;1.30;;;;;;;15.89;100.00;100348.75;5031378;28;20067;-78
2021/09/04 00:48:47;;;;;;;8.02;1.77;;;;;;;15.83;100.00;100336.69;5031806;28;20049;-78
2021/09/04 00:51:50;;;;;;;2.50;1.23;;;;;;;15.84;100.00;100335.44;5031534;28;20088;-79
2021/09/04 00:54:53;;;;;;;4.80;1.40;;;;;;;15.71;100.00;100337.91;5031408;28;20502;-78
2021/09/04 00:57:56;;;;;;;3.45;1.58;;;;;;;15.76;100.00;100334.38;5031738;28;20060;-78
2021/09/04 01:00:59;;;;;;;8.30;2.30;;;;;;;15.69;100.00;100339.66;5031032;28;20060;-78
2021/09/04 01:04:03;;;;;;;5.82;2.05;;;;;;;15.65;100.00;100339.13;5030783;28;20128;-77
2021/09/04 01:07:06;;;;;;;8.05;2.92;;;;;;;15.56;100.00;100331.66;5031387;28;20056;-78
2021/09/04 01:10:11;;;;;;;9.50;1.92;;;;;;;15.74;100.00;100331.25;5031405;28;20052;-77
2021/09/04 01:13:14;;;;;;;6.05;1.60;;;;;;;15.78;100.00;100336.66;5030864;28;20490;-77
2021/09/04 01:16:18;;;;;;;13.25;2.67;;;;;;;15.40;100.00;100334.31;5031101;28;20507;-78
2021/09/04 01:19:21;;;;;;;11.55;2.08;;;;;;;15.28;100.00;100332.66;5030900;28;20510;-78
2021/09/04 01:22:24;;;;;;;5.60;1.80;;;;;;;15.64;100.00;100321.50;5030884;28;20519;-78
2021/09/04 01:25:29;;;;;;;11.07;1.40;;;;;;;15.76;100.00;100322.38;5031013;28;20056;-78
2021/09/04 01:28:33;;;;;;;3.30;1.08;;;;;;;15.88;100.00;100335.19;5030809;28;20096;-78
2021/09/04 01:31:36;;;;;;;3.65;2.15;;;;;;;15.93;100.00;100331.66;5030218;28;20100;-77
2021/09/04 01:34:39;;;;;;;4.93;1.38;;;;;;;15.53;100.00;100338.25;5030459;28;20553;-79
2021/09/04 01:37:42;;;;;;;9.10;1.77;;;;;;;15.60;100.00;100328.59;5030990;28;20053;-79
2021/09/04 01:40:45;;;;;;;5.88;1.95;;;;;;;15.35;100.00;100326.59;5031026;28;20053;-79
2021/09/04 01:43:48;;;;;;;12.05;1.73;;;;;;;15.32;100.00;100324.78;5031146;28;20044;-79
2021/09/04 01:46:52;;;;;;;2.88;1.45;;;;;;;15.08;100.00;100320.22;5031209;28;20048;-79
2021/09/04 01:49:55;;;;;;;4.10;1.65;;;;;;;15.35;100.00;100315.38;5031076;28;20044;-80
2021/09/04 01:52:59;;;;;;;7.05;2.03;;;;;;;15.14;100.00;100309.81;5030955;28;20119;-79
2021/09/04 01:56:01;;;;;;;4.93;1.95;;;;;;;15.19;100.00;100314.72;5030574;28;20052;-79
2021/09/04 01:59:05;;;;;;;13.50;2.60;;;;;;;15.01;100.00;100312.25;5031041;28;20048;-79
2021/09/04 02:02:08;;;;;;;2.03;1.00;;;;;;;15.00;100.00;100310.72;5029682;28;20043;-79
2021/09/04 02:05:12;;;;;;;8.20;2.25;;;;;;;15.01;100.00;100315.03;5030645;28;20125;-79
2021/09/04 02:08:15;;;;;;;4.68;1.80;;;;;;;15.31;100.00;100306.41;5030137;28;20056;-79
2021/09/04 02:11:18;;;;;;;9.30;2.63;;;;;;;15.30;100.00;100297.22;5030850;28;20052;-79
2021/09/04 02:14:21;;;;;;;6.75;2.55;;;;;;;15.50;100.00;100307.59;5030439;28;20446;-79
2021/09/04 02:17:24;;;;;;;9.60;2.15;;;;;;;15.47;100.00;100297.38;5029358;28;20131;-80
2021/09/04 02:20:27;;;;;;;6.88;1.42;;;;;;;15.47;100.00;100300.94;5030083;28;20068;-79
2021/09/04 02:23:29;;;;;;;6.47;1.67;;;;;;;15.47;100.00;100303.75;5029340;28;20100;-79
2021/09/04 02:26:32;;;;;;;7.50;1.88;;;;;;;15.46;100.00;100293.81;5032474;28;20051;-79
2021/09/04 02:29:35;;;;;;;3.53;1.15;;;;;;;15.21;100.00;100300.19;5014426;28;20093;-80
2021/09/04 02:32:38;;;;;;;9.18;2.80;;;;;;;15.23;100.00;100296.88;5012444;28;20546;-79
2021/09/04 02:35:42;;;;;;;5.65;1.48;;;;;;;15.17;100.00;100297.63;5013842;28;20461;-79
2021/09/04 02:38:45;;;;;;;8.93;1.85;;;;;;;15.14;100.00;100301.41;5014557;28;20045;-79
2021/09/04 02:41:48;;;;;;;5.30;0.95;;;;;;;15.15;100.00;100285.34;5014415;28;20443;-79
2021/09/04 02:44:51;;;;;;;13.68;2.00;;;;;;;15.15;100.00;100296.56;5013955;28;20129;-79
2021/09/04 02:47:54;;;;;;;12.52;2.05;;;;;;;15.09;100.00;100292.94;5013928;28;20104;-79
2021/09/04 02:50:57;;;;;;;7.28;1.75;;;;;;;15.10;100.00;100289.63;5013926;28;20131;-79
2021/09/04 02:54:00;;;;;;;7.95;2.22;;;;;;;15.04;100.00;100274.78;5013674;28;20061;-79
2021/09/04 02:57:03;;;;;;;9.38;2.08;;;;;;;15.01;100.00;100281.38;5035863;28;20151;-79
2021/09/04 03:00:07;;;;;;;5.32;1.05;;;;;;;14.96;100.00;100281.34;5014046;28;20550;-79
2021/09/04 03:03:10;;;;;;;4.03;1.58;;;;;;;15.01;100.00;100278.59;5013544;28;20570;-79
2021/09/04 03:06:13;;;;;;;5.68;1.38;;;;;;;14.96;100.00;100284.94;5013931;28;20049;-79
2021/09/04 03:09:16;;;;;;;9.77;1.50;;;;;;;14.95;100.00;100282.59;5013874;28;20091;-80
2021/09/04 03:12:19;;;;;;;6.68;2.20;;;;;;;14.97;100.00;100278.03;5013328;28;20108;-79
2021/09/04 03:15:22;;;;;;;3.83;1.77;;;;;;;14.90;100.00;100281.28;5012696;28;20049;-79
2021/09/04 03:18:25;;;;;;;7.70;2.30;;;;;;;14.85;100.00;100281.22;5012434;28;20508;-79
2021/09/04 03:21:28;;;;;;;8.82;2.83;;;;;;;14.89;100.00;100279.75;5013299;28;20108;-79
2021/09/04 03:24:31;;;;;;;10.73;2.45;;;;;;;14.68;100.00;100269.84;5012926;28;20412;-79
2021/09/04 03:27:34;;;;;;;6.65;1.50;;;;;;;15.16;100.00;100270.81;5016529;28;20511;-80
2021/09/04 03:30:37;;;;;;;10.30;3.65;;;;;;;15.14;100.00;100262.13;5034209;28;20059;-80
2021/09/04 03:33:39;;;;;;;8.88;2.13;;;;;;;15.16;100.00;100268.00;5032446;28;20537;-79
2021/09/04 03:36:42;;;;;;;2.55;1.85;;;;;;;15.11;100.00;100274.34;5032331;28;20083;-80
2021/09/04 03:39:45;;;;;;;2.38;1.42;;;;;;;15.04;100.00;100266.38;5033066;28;20048;-79
2021/09/04 03:42:48;;;;;;;9.40;2.58;;;;;;;15.02;100.00;100260.50;5032987;28;20044;-79
2021/09/04 03:45:51;;;;;;;11.63;2.63;;;;;;;15.05;100.00;100256.69;5032706;28;20068;-79
2021/09/04 03:48:56;;;;;;;7.93;2.28;;;;;;;14.76;100.00;100265.34;5033157;28;20152;-80
2021/09/04 03:51:59;;;;;;;10.85;2.40;;;;;;;14.63;100.00;100262.16;5037564;28;20080;-80
2021/09/04 03:55:02;;;;;;;7.65;1.85;;;;;;;14.61;100.00;100264.69;5038235;28;20429;-80
2021/09/04 03:58:05;;;;;;;9.98;2.53;;;;;;;14.64;100.00;100266.47;5038294;28;20135;-80
2021/09/04 04:01:08;;;;;;;3.13;1.90;;;;;;;14.96;100.00;100261.72;5038456;28;20052;-80
2021/09/04 04:04:11;;;;;;;6.53;2.47;;;;;;;15.38;100.00;100258.22;5038224;28;20072;-80
2021/09/04 04:07:14;;;;;;;8.80;2.25;;;;;;;15.53;100.00;100258.88;5035182;28;20069;-80
2021/09/04 04:10:17;;;;;;;9.68;3.30;;;;;;;15.51;100.00;100255.81;5032005;28;20140;-80
2021/09/04 04:13:20;;;;;;;7.05;2.38;;;;;;;15.63;100.00;100257.44;5031230;28;20048;-80
2021/09/04 04:16:22;;;;;;;6.30;2.30;;;;;;;15.03;100.00;100262.03;5030445;28;20211;-80
2021/09/04 04:19:25;;;;;;;12.95;3.40;;;;;;;14.86;100.00;100252.69;5031048;28;20115;-80
2021/09/04 04:22:28;;;;;;;22.48;3.50;;;;;;;14.75;100.00;100263.78;5029849;28;20045;-80
2021/09/04 04:25:31;;;;;;;17.98;2.45;;;;;;;14.85;100.00;100265.19;5031071;28;20044;-80
2021/09/04 04:28:34;;;;;;;3.45;1.55;;;;;;;14.68;100.00;100264.25;5031429;28;20057;-79
2021/09/04 04:31:38;;;;;;;6.53;2.33;;;;;;;15.01;100.00;100261.75;5030949;28;20481;-79
2021/09/04 04:34:41;;;;;;;4.57;2.25;;;;;;;14.86;100.00;100272.31;5031186;28;20048;-79
2021/09/04 04:37:44;;;;;;;8.73;1.40;;;;;;;14.80;100.00;100270.72;5031650;28;20518;-79
2021/09/04 04:40:47;;;;;;;8.93;2.15;;;;;;;14.84;100.00;100268.47;5030881;28;20056;-79
2021/09/04 04:43:49;;;;;;;10.02;3.83;;;;;;;14.83;100.00;100275.34;5031673;28;20159;-79
2021/09/04 04:46:52;;;;;;;7.88;2.95;;;;;;;14.89;100.00;100262.94;5031424;28;20068;-79
2021/09/04 04:49:55;;;;;;;7.93;2.95;;;;;;;14.90;100.00;100269.31;5030129;28;20084;-79
2021/09/04 04:52:58;;;;;;;10.40;1.85;;;;;;;14.94;100.00;100259.38;5031218;28;20136;-79
2021/09/04 04:56:02;;;;;;;9.50;2.70;;;;;;;14.99;100.00;100266.31;5031341;28;20513;-79
2021/09/04 04:59:05;;;;;;;18.30;2.80;;;;;;;14.99;100.00;100277.53;5031554;28;20565;-79
2021/09/04 05:02:08;;;;;;;5.97;2.17;;;;;;;15.00;100.00;100274.25;5031243;28;20048;-79
2021/09/04 05:05:11;;;;;;;11.10;2.58;;;;;;;15.01;100.00;100270.16;5031230;28;20522;-80
2021/09/04 05:08:14;;;;;;;5.38;1.85;;;;;;;14.98;100.00;100270.41;5031382;28;20068;-76
2021/09/04 05:11:17;;;;;;;8.48;1.55;;;;;;;15.04;100.00;100266.38;5031686;28;20502;-76
2021/09/04 05:14:20;;;;;;;6.13;2.10;;;;;;;15.02;100.00;100268.91;5030826;28;20546;-77
2021/09/04 05:17:22;;;;;;;9.02;2.75;;;;;;;15.05;100.00;100270.72;5030798;28;20152;-78
2021/09/04 05:20:25;;;;;;;6.30;2.30;;;;;;;15.04;100.00;100269.19;5030887;28;20052;-78
2021/09/04 05:23:30;;;;;;;10.57;3.22;;;;;;;15.37;100.00;100260.28;5030980;28;20092;-78
2021/09/04 05:26:33;;;;;;;4.15;2.05;;;;;;;15.44;100.00;100264.69;5030401;28;20048;-78
2021/09/04 05:29:35;;;;;;;11.90;2.72;;;;;;;15.58;100.00;100266.56;5011409;28;20053;-78
2021/09/04 05:32:38;;;;;;;8.45;2.58;;;;;;;15.43;100.00;100272.34;5009341;28;20076;-78
2021/09/04 05:35:43;;;;;;;8.73;2.33;;;;;;;14.98;100.00;100271.19;5009854;28;20155;-78
2021/09/04 05:38:46;;;;;;;10.65;2.25;;;;;;;15.26;100.00;100271.41;5024610;28;20053;-78
2021/09/04 05:41:49;;;;;;;5.20;2.65;;;;;;;15.22;100.00;100272.91;5030431;28;20075;-78
2021/09/04 05:44:52;;;;;;;8.88;1.92;;;;;;;15.13;100.00;100277.44;5030421;28;20036;-78
2021/09/04 05:47:55;;;;;;;8.25;2.53;;;;;;;15.29;100.00;100275.28;5030155;28;20098;-78
2021/09/04 05:50:58;;;;;;;5.38;2.97;;;;;;;15.65;100.00;100257.69;5029750;28;20075;-78
2021/09/04 05:54:00;;;;;;;6.55;2.42;;;;;;;15.79;100.00;100267.97;5030160;28;20102;-78
2021/09/04 05:57:03;;;;;;;12.93;2.72;;;;;;;15.88;100.00;100270.59;5030099;28;20049;-78
2021/09/04 06:00:07;;;;;;;8.75;2.58;;;;;;;15.78;100.00;100269.28;5028809;28;20458;-78
2021/09/04 06:03:10;;;;;;;18.85;3.90;;;;;;;15.99;100.00;100273.47;5031689;28;20049;-78
2021/09/04 06:06:12;;;;;;;15.02;4.97;;;;;;;15.99;100.00;100281.91;5033731;28;20092;-78
2021/09/04 06:09:16;;;;;;;15.20;2.42;;;;;;;16.02;100.00;100275.28;5033843;28;20049;-78
2021/09/04 06:12:18;;;;;;;13.13;3.75;;;;;;;16.11;100.00;100274.31;5033171;28;20423;-78
2021/09/04 06:15:21;;;;;;;15.18;2.83;;;;;;;16.25;100.00;100268.50;5032815;28;20072;-79
2021/09/04 06:18:24;;;;;;;12.88;3.05;;;;;;;16.09;100.00;100265.63;5032651;28;20529;-79
2021/09/04 06:21:27;;;;;;;10.13;3.28;;;;;;;16.26;100.00;100266.44;5033065;28;20057;-79
2021/09/04 06:24:30;;;;;;;8.93;2.63;;;;;;;16.25;100.00;100262.88;5033283;28;20040;-79
2021/09/04 06:27:33;;;;;;;11.60;2.58;;;;;;;16.43;100.00;100262.44;5032899;28;20541;-79
2021/09/04 06:30:35;;;;;;;14.10;4.70;;;;;;;16.50;100.00;100264.75;5029836;28;20048;-79
2021/09/04 06:33:38;;;;;;;14.95;3.00;;;;;;;16.62;100.00;100269.16;5030840;28;20529;-79
2021/09/04 06:36:41;;;;;;;9.73;4.03;;;;;;;16.75;100.00;100273.53;5032184;28;21040;-79
2021/09/04 06:39:44;;;;;;;13.88;4.00;;;;;;;16.85;100.00;100269.22;5032903;28;20580;-79
2021/09/04 06:42:47;;;;;;;16.63;3.60;;;;;;;16.84;100.00;100274.06;5031868;28;20068;-79
2021/09/04 06:45:50;;;;;;;10.40;3.30;;;;;;;17.01;100.00;100266.44;5033392;28;20076;-79
2021/09/04 06:48:53;;;;;;;11.98;2.45;;;;;;;17.13;100.00;100264.41;5033758;28;20454;-79
2021/09/04 06:51:56;;;;;;;9.07;2.22;;;;;;;17.12;100.00;100260.81;5033659;28;20053;-79
2021/09/04 06:55:02;;;;;;;9.52;2.33;;;;;;;17.28;100.00;100267.72;5033450;28;20103;-79
2021/09/04 06:58:04;;;;;;;8.43;3.00;;;;;;;17.27;100.00;100261.31;5032777;28;20580;-79
2021/09/04 07:01:07;;;;;;;10.02;3.53;;;;;;;17.38;100.00;100260.56;5032673;28;20043;-79
2021/09/04 07:04:10;;;;;;;8.52;2.17;;;;;;;17.45;100.00;100255.16;5031498;28;20423;-79
2021/09/04 07:07:14;;;;;;;9.85;3.90;;;;;;;17.45;100.00;100254.41;5032269;28;20072;-78
2021/09/04 07:10:17;;;;;;;12.88;3.42;;;;;;;17.43;100.00;100257.72;5032894;28;20048;-80
2021/09/04 07:13:20;;;;;;;13.15;2.72;;;;;;;17.50;100.00;100264.13;5029517;28;20056;-79
2021/09/04 07:16:23;;;;;;;10.32;3.42;;;;;;;17.55;100.00;100269.00;5031885;28;20045;-78
2021/09/04 07:19:26;;;;;;;15.13;5.10;;;;;;;17.63;100.00;100270.03;5032247;28;20076;-78
2021/09/04 07:22:29;;;;;;;11.38;3.33;;;;;;;17.03;100.00;100274.34;5031984;28;20076;-78
2021/09/04 07:25:32;;;;;;;15.30;2.92;;;;;;;17.50;100.00;100269.75;5031954;28;20083;-78
2021/09/04 07:28:36;;;;;;;6.03;2.80;;;;;;;17.60;100.00;100271.84;5032210;28;20064;-77
2021/09/04 07:31:41;;;;;;;9.68;3.00;;;;;;;17.73;100.00;100274.88;5031029;28;20175;-76
2021/09/04 07:34:44;;;;;;;7.85;2.72;;;;;;;17.82;100.00;100274.59;5031356;28;20071;-77
2021/09/04 07:37:47;;;;;;;7.65;2.88;;;;;;;17.94;100.00;100264.84;5031236;28;20506;-78
2021/09/04 07:40:51;;;;;;;5.07;2.92;;;;;;;18.12;100.00;100269.91;5033100;28;20083;-78
2021/09/04 07:43:54;;;;;;;9.60;3.00;;;;;;;18.15;100.00;100265.28;5032944;28;20133;-77
2021/09/04 07:46:56;;;;;;;12.05;3.35;;;;;;;18.30;100.00;100276.25;5032767;28;20057;-75
2021/09/04 07:49:59;;;;;;;14.68;4.00;;;;;;;18.43;100.00;100262.38;5032588;28;20051;-76
2021/09/04 07:53:02;;;;;;;9.02;2.95;;;;;;;18.60;100.00;100272.28;5032658;28;20057;-76
2021/09/04 07:56:05;;;;;;;17.00;3.22;;;;;;;18.59;100.00;100264.34;5032527;28;20117;-75
2021/09/04 07:59:08;;;;;;;9.13;3.10;;;;;;;18.72;100.00;100265.31;5032653;28;20063;-76
2021/09/04 08:02:11;;;;;;;8.38;3.15;;;;;;;18.74;100.00;100276.06;5032304;28;20052;-76
2021/09/04 08:05:14;;;;;;;7.80;2.28;;;;;;;18.88;100.00;100277.78;5030686;28;20049;-76
2021/09/04 08:08:18;;;;;;;11.88;4.32;;;;;;;19.01;100.00;100272.31;5032094;28;20080;-77
2021/09/04 08:11:21;;;;;;;12.70;2.40;;;;;;;19.00;100.00;100270.75;5031741;28;20064;-77
2021/09/04 08:14:24;;;;;;;7.25;2.58;;;;;;;19.02;100.00;100275.88;5031590;28;20546;-77
2021/09/04 08:17:27;;;;;;;7.90;2.97;;;;;;;19.12;100.00;100277.88;5031606;28;20474;-77
2021/09/04 08:20:30;;;;;;;6.15;2.38;;;;;;;19.19;100.00;100277.28;5031321;28;20232;-77
2021/09/04 08:23:33;;;;;;;14.45;3.45;;;;;;;19.24;100.00;100279.31;5031737;28;20092;-77
2021/09/04 08:26:36;;;;;;;7.85;2.75;;;;;;;19.28;100.00;100285.44;5032242;28;20095;-76
2021/09/04 08:29:39;;;;;;;5.15;1.92;;;;;;;19.34;100.00;100282.59;5012820;28;20100;-77
2021/09/04 08:32:42;;;;;;;3.83;1.55;;;;;;;18.82;100.00;100286.28;5011270;28;20107;-77
2021/09/04 08:35:46;;;;;;;4.45;1.58;;;;;;;18.67;100.00;100290.72;5031230;28;20099;-77
2021/09/04 08:38:49;;;;;;;7.05;3.00;;;;;;;19.03;100.00;100286.66;5031109;28;20048;-77
2021/09/04 08:41:51;;;;;;;6.80;2.65;;;;;;;19.25;100.00;100292.13;5031391;28;20475;-77
2021/09/04 08:44:54;;;;;;;5.22;1.55;;;;;;;19.44;100.00;100298.72;5031105;28;20541;-76
2021/09/04 08:48:00;;;;;;;7.30;2.15;;;;;;;19.56;100.00;100294.47;5031310;28;20051;-77
2021/09/04 08:51:02;;;;;;;7.32;1.90;;;;;;;19.60;100.00;100289.31;5031557;28;20076;-77
2021/09/04 08:54:05;;;;;;;7.82;2.45;;;;;;;19.61;100.00;100296.50;5031595;28;20051;-77
2021/09/04 08:57:08;;;;;;;17.98;3.35;;;;;;;19.62;100.00;100298.03;5031398;28;20060;-77
2021/09/04 09:00:11;;;;;;;5.50;1.08;;;;;;;19.54;100.00;100297.06;5030805;28;20056;-77
2021/09/04 09:03:25;;;;;;;4.95;1.60;;;;;;;19.43;100.00;100296.38;5031015;28;20118;-77
2021/09/04 09:06:32;;;;;;;9.60;1.20;;;;;;;19.40;100.00;100306.72;5034319;28;20069;-77
2021/09/04 09:09:35;;;;;;;6.53;1.40;;;;;;;19.32;100.00;100308.53;5036096;28;20112;-77
2021/09/04 09:12:38;;;;;;;4.65;1.73;;;;;;;19.29;100.00;100312.41;5035732;28;20048;-77
2021/09/04 09:15:41;;;;;;;8.38;1.95;;;;;;;19.35;100.00;100307.50;5035929;28;20100;-77
2021/09/04 09:18:59;;;;;;;5.18;1.58;;;;;;;19.15;100.00;100316.34;5037249;28;20053;-78
2021/09/04 09:22:17;;;;;;;4.43;1.48;;;;;;;19.20;100.00;100318.38;5036482;28;20048;-77
2021/09/04 09:25:21;;;;;;;1.85;1.23;;;;;;;19.15;100.00;100316.34;5030996;28;20072;-77
2021/09/04 09:28:26;;;;;;;4.78;1.58;;;;;;;19.11;100.00;100315.88;5030093;28;20187;-77
2021/09/04 09:31:32;;;;;;;11.98;2.33;;;;;;;19.04;100.00;100315.63;5028413;28;20128;-78
2021/09/04 09:34:46;;;;;;;8.27;1.70;;;;;;;19.18;100.00;100320.19;5031016;28;20052;-78
2021/09/04 09:37:50;;;;;;;5.07;1.73;;;;;;;19.14;100.00;100319.69;5035056;28;20056;-79
2021/09/04 09:40:54;;;;;;;3.72;1.63;;;;;;;19.10;100.00;100319.97;5034911;28;20052;-79
2021/09/04 09:43:57;;;;;;;7.60;1.23;;;;;;;18.99;100.00;100314.41;5034020;28;20419;-78
2021/09/04 09:47:11;;;;;;;4.15;1.73;;;;;;;18.88;100.00;100315.22;5034138;28;20099;-78
2021/09/04 09:50:14;;;;;;;6.03;1.75;;;;;;;18.82;100.00;100319.38;5034361;28;20079;-79
2021/09/04 09:53:19;;;;;;;7.95;2.10;;;;;;;18.71;100.00;100319.44;5034380;28;20417;-78
2021/09/04 09:56:22;;;;;;;4.78;1.90;;;;;;;18.70;100.00;100320.72;5034949;28;20052;-78
2021/09/04 09:59:30;;;;;;;7.72;2.33;;;;;;;18.95;100.00;100319.53;5034880;28;20400;-78
2021/09/04 10:02:34;;;;;;;11.32;2.85;;;;;;;19.16;100.00;100311.47;5034647;28;20087;-78
2021/09/04 10:05:38;;;;;;;10.57;2.00;;;;;;;19.20;100.00;100312.72;5034522;28;20119;-76
2021/09/04 10:08:41;;;;;;;5.63;2.05;;;;;;;19.29;100.00;100311.63;5034641;28;20048;-77
2021/09/04 10:11:44;;;;;;;4.85;1.85;;;;;;;19.32;100.00;100308.53;5034834;28;20518;-77
2021/09/04 10:14:50;;;;;;;8.23;2.45;;;;;;;19.39;100.00;100307.97;5033816;28;20140;-77
2021/09/04 10:17:55;;;;;;;7.78;2.33;;;;;;;19.36;100.00;100302.63;5034633;28;20102;-76
2021/09/04 10:21:00;;;;;;;7.05;2.88;;;;;;;19.57;100.00;100301.69;5034159;28;20103;-77
2021/09/04 10:24:05;;;;;;;6.00;1.83;;;;;;;19.88;100.00;100308.06;5034589;28;20052;-76
2021/09/04 10:27:11;;;;;;;2.20;0.88;;;;;;;20.04;100.00;100301.47;5034819;28;20068;-76
2021/09/04 10:30:38;;;;;;;3.30;1.08;;;;;;;19.98;100.00;100300.75;5034176;28;20052;-76
2021/09/04 10:33:41;;;;;;;5.05;1.52;;;;;;;20.01;100.00;100305.38;5033750;28;20184;-78
2021/09/04 10:37:14;;;;;;;4.22;2.03;;;;;;;20.06;100.00;100296.03;5033303;28;20522;-77
2021/09/04 10:40:35;;;;;;;5.43;1.33;;;;;;;20.08;100.00;100299.09;5034422;28;20048;-77
2021/09/04 10:43:51;;;;;;;8.48;2.45;;;;;;;19.92;100.00;100291.59;5033443;28;20145;-77
2021/09/04 10:46:54;;;;;;;5.28;1.02;;;;;;;19.51;100.00;100297.38;5032837;28;20134;-77
2021/09/04 10:50:16;;;;;;;8.48;1.40;;;;;;;19.40;100.00;100292.59;5033621;28;20099;-77
2021/09/04 10:53:43;;;;;;;7.80;1.58;;;;;;;19.32;100.00;100291.56;5033672;28;20057;-77
2021/09/04 10:56:45;;;;;;;3.13;1.40;;;;;;;19.53;100.00;100287.06;5033628;28;20115;-77
2021/09/04 11:00:16;;;;;;;3.72;1.65;;;;;;;20.19;100.00;100282.00;5033837;28;20048;-77
2021/09/04 11:03:21;;;;;;;4.50;1.52;;;;;;;20.79;100.00;100288.97;5032996;28;20048;-77
2021/09/04 11:06:25;;;;;;;2.97;0.85;;;;;;;21.20;100.00;100276.59;5033005;28;20069;-77
2021/09/04 11:09:48;;;;;;;3.47;1.20;;;;;;;21.40;100.00;100270.31;5033483;28;20164;-77
2021/09/04 11:13:12;;;;;;;8.15;1.40;;;;;;;21.51;100.00;100265.22;5033538;28;20125;-77
2021/09/04 11:16:34;;;;;;;3.60;1.45;;;;;;;21.53;100.00;100264.69;5032980;28;20060;-77
2021/09/04 11:19:37;;;;;;;8.30;1.58;;;;;;;21.63;100.00;100272.25;5032024;28;20427;-77
2021/09/04 11:22:45;;;;;;;7.38;1.70;;;;;;;21.75;100.00;100258.59;5032435;28;20044;-77
2021/09/04 11:25:48;;;;;;;5.45;1.52;;;;;;;21.87;100.00;100242.97;5033495;28;20560;-78
2021/09/04 11:28:59;;;;;;;7.03;1.40;;;;;;;22.02;100.00;100237.50;5033466;28;20052;-77
2021/09/04 11:32:02;;;;;;;5.80;1.25;;;;;;;21.98;100.00;100248.41;5032668;28;20103;-76
2021/09/04 11:35:05;;;;;;;6.57;1.48;;;;;;;21.98;100.00;100237.06;5032175;28;20496;-78
2021/09/04 11:38:09;;;;;;;3.83;1.27;;;;;;;22.04;100.00;100237.72;5033013;28;20506;-79
2021/09/04 11:41:11;;;;;;;2.65;0.80;;;;;;;22.16;100.00;100236.19;5032530;28;20414;-79
2021/09/04 11:44:19;;;;;;;4.43;1.10;;;;;;;22.55;100.00;100241.03;5032125;28;20415;-78
2021/09/04 11:47:29;;;;;;;8.52;1.38;;;;;;;22.36;100.00;100232.66;5038920;28;20091;-79
2021/09/04 11:50:32;;;;;;;4.28;1.02;;;;;;;22.02;100.00;100237.50;5035907;28;20611;-77
2021/09/04 11:53:36;;;;;;;4.38;1.42;;;;;;;21.75;100.00;100233.88;5034913;28;20111;-78
2021/09/04 11:56:39;;;;;;;3.97;0.73;;;;;;;21.45;100.00;100230.56;5037133;28;20064;-78
2021/09/04 12:00:07;;;;;;;5.20;1.88;;;;;;;21.21;100.00;100232.78;5034681;28;20048;-77
2021/09/04 12:03:12;;;;;;;8.63;1.50;;;;;;;21.21;100.00;100225.03;5036800;28;20104;-77
2021/09/04 12:06:15;;;;;;;4.28;1.40;;;;;;;20.90;100.00;100234.25;5035195;28;20052;-77
2021/09/04 12:09:18;;;;;;;5.93;1.27;;;;;;;20.50;100.00;100224.06;5032413;28;20154;-77
2021/09/04 12:12:27;;;;;;;4.22;1.85;;;;;;;20.56;100.00;100230.38;5031931;28;20098;-78
2021/09/04 12:15:32;;;;;;;8.98;1.50;;;;;;;20.36;100.00;100223.19;5031010;28;20049;-79
2021/09/04 12:18:42;;;;;;;7.40;1.75;;;;;;;20.28;100.00;100225.13;5032092;28;20056;-79
2021/09/04 12:21:51;;;;;;;10.52;1.83;;;;;;;20.22;100.00;100218.75;5012046;28;20424;-78
2021/09/04 12:24:54;;;;;;;3.45;1.50;;;;;;;19.97;100.00;100225.72;5012175;28;20069;-78
2021/09/04 12:28:06;;;;;;;6.82;1.90;;;;;;;20.07;100.00;100224.06;5020016;28;20052;-78
2021/09/04 12:31:11;;;;;;;6.45;1.60;;;;;;;20.18;100.00;100221.09;5032237;28;20554;-78
2021/09/04 12:34:19;;;;;;;3.20;1.45;;;;;;;20.18;100.00;100223.94;5031568;28;20511;-79
2021/09/04 12:37:26;;;;;;;5.57;1.55;;;;;;;20.21;100.00;100223.66;5031267;28;20484;-79
2021/09/04 12:40:30;;;;;;;3.90;1.33;;;;;;;20.20;100.00;100222.13;5031650;28;20064;-79
2021/09/04 12:43:51;;;;;;;4.65;2.15;;;;;;;20.25;100.00;100214.84;5031404;28;20044;-79
2021/09/04 12:46:54;;;;;;;4.47;1.20;;;;;;;20.35;100.00;100216.03;5031602;28;20103;-77
2021/09/04 12:49:57;;;;;;;9.18;1.58;;;;;;;20.49;100.00;100214.03;5032075;28;20419;-77
2021/09/04 12:53:05;;;;;;;3.65;1.35;;;;;;;20.63;100.00;100210.75;5031753;28;20259;-77
2021/09/04 12:56:08;;;;;;;6.95;1.95;;;;;;;20.88;100.00;100211.38;5032072;28;20048;-76
2021/09/04 12:59:11;;;;;;;7.93;1.80;;;;;;;20.97;100.00;100208.16;5031868;28;20044;-78
2021/09/04 13:02:22;;;;;;;5.60;1.80;;;;;;;21.19;100.00;100207.06;5031305;28;20088;-78
2021/09/04 13:05:26;;;;;;;5.05;1.77;;;;;;;21.36;100.00;100213.19;5031572;28;20060;-77
2021/09/04 13:08:28;;;;;;;3.83;0.80;;;;;;;21.51;100.00;100211.38;5029425;28;20057;-79
2021/09/04 13:11:31;;;;;;;7.47;1.58;;;;;;;21.65;100.00;100212.94;5031096;28;20088;-78
2021/09/04 13:14:36;;;;;;;10.63;1.45;;;;;;;21.76;100.00;100209.88;5031000;28;20091;-78
2021/09/04 13:17:39;;;;;;;4.97;1.30;;;;;;;;;;5030944;28;20091;-77
2021/09/04 13:20:43;;;;;;;4.93;1.48;;;;;;;22.29;100.00;100213.47;5031376;28;20053;-78
2021/09/04 13:23:46;;;;;;;3.33;0.90;;;;;;;22.50;100.00;100211.44;5031388;28;20526;-78
2021/09/04 13:26:49;;;;;;;5.68;1.27;;;;;;;22.57;100.00;100207.94;5031700;28;20056;-78
2021/09/04 13:29:51;;;;;;;4.15;0.75;;;;;;;22.60;100.00;100201.19;5011460;28;20052;-78
2021/09/04 13:32:54;;;;;;;3.67;1.60;;;;;;;22.73;100.00;100200.38;5011146;28;20061;-78
2021/09/04 13:35:58;;;;;;;3.55;1.80;;;;;;;22.75;100.00;100194.91;5011517;28;20060;-78
2021/09/04 13:39:01;;;;;;;3.00;1.40;;;;;;;22.63;100.00;100204.25;5011616;28;20104;-78
2021/09/04 13:42:05;;;;;;;5.82;1.35;;;;;;;22.38;100.00;100200.88;5009576;28;20049;-79
2021/09/04 13:45:08;;;;;;;3.95;1.85;;;;;;;22.02;100.00;100203.47;5010238;28;20094;-79
2021/09/04 13:48:11;;;;;;;6.60;1.60;;;;;;;22.08;100.00;100201.28;5010385;28;20108;-79
2021/09/04 13:51:15;;;;;;;4.63;2.30;;;;;;;22.08;100.00;100197.66;5009506;28;20053;-80
2021/09/04 13:54:18;;;;;;;3.15;1.17;;;;;;;22.10;100.00;100195.06;5008501;28;20076;-79
2021/09/04 13:57:21;;;;;;;8.32;1.27;;;;;;;22.00;100.00;100191.91;5010004;28;20044;-79
2021/09/04 14:00:25;;;;;;;13.98;2.03;;;;;;;21.81;100.00;100194.06;5011121;28;20582;-78
2021/09/04 14:03:28;;;;;;;4.22;0.68;;;;;;;21.58;100.00;100190.91;5010549;28;20539;-79
2021/09/04 14:06:31;;;;;;;17.42;2.42;;;;;;;21.40;100.00;100188.91;5010582;28;20056;-79
2021/09/04 14:09:35;;;;;;;3.90;0.77;;;;;;;21.14;100.00;100195.28;5010855;28;20416;-78